createdAt,value
2022-10-09T00:01:08.990Z,53.49
2022-10-09T00:02:10.640Z,53.20
2022-10-09T00:03:13.711Z,53.20
2022-10-09T00:04:15.528Z,53.34
2022-10-09T00:05:17.264Z,53.42
2022-10-09T00:06:22.219Z,53.41
2022-10-09T00:07:23.995Z,53.78
2022-10-09T00:08:26.304Z,53.45
2022-10-09T00:09:27.987Z,53.38
2022-10-09T00:10:30.131Z,53.37
2022-10-09T00:11:33.491Z,53.54
2022-10-09T00:12:35.159Z,53.44
2022-10-09T00:13:37.844Z,53.46
2022-10-09T00:14:39.532Z,53.36
2022-10-09T00:15:42.832Z,53.32
2022-10-09T00:16:44.563Z,53.46
2022-10-09T00:17:46.289Z,53.50
2022-10-09T00:18:48.212Z,53.67
2022-10-09T00:19:49.870Z,53.55
2022-10-09T00:20:51.513Z,53.28
2022-10-09T00:21:53.193Z,53.80
2022-10-09T00:22:55.110Z,53.60
2022-10-09T00:23:59.057Z,53.55
2022-10-09T00:25:00.790Z,53.42
2022-10-09T00:26:02.644Z,53.58
2022-10-09T00:27:04.457Z,53.16
2022-10-09T00:28:06.262Z,53.67
2022-10-09T00:29:07.923Z,53.35
2022-10-09T00:30:10.054Z,53.47
2022-10-09T00:31:12.853Z,53.36
2022-10-09T00:32:14.690Z,53.63
2022-10-09T00:33:16.708Z,53.38
2022-10-09T00:34:18.397Z,53.61
2022-10-09T00:35:20.633Z,53.37
2022-10-09T00:36:25.156Z,53.47
2022-10-09T00:37:28.750Z,54.51
2022-10-09T00:38:30.424Z,54.81
2022-10-09T00:39:32.153Z,54.68
2022-10-09T00:40:34.911Z,54.17
2022-10-09T00:41:36.613Z,55.10
2022-10-09T00:42:38.320Z,55.31
2022-10-09T00:43:56.611Z,55.05
2022-10-09T00:45:01.611Z,54.43
2022-10-09T00:46:03.768Z,54.51
2022-10-09T00:47:05.648Z,54.18
2022-10-09T00:48:10.165Z,54.23
2022-10-09T00:49:34.233Z,54.20
2022-10-09T00:50:40.770Z,54.17
2022-10-09T00:51:44.965Z,54.05
2022-10-09T00:52:50.943Z,54.60
2022-10-09T00:53:53.133Z,55.27
2022-10-09T00:54:56.682Z,55.43
2022-10-09T00:55:58.796Z,55.43
2022-10-09T00:57:00.606Z,55.09
2022-10-09T00:58:02.933Z,55.54
2022-10-09T00:59:06.093Z,55.93
2022-10-09T01:00:11.140Z,55.99
2022-10-09T01:01:12.844Z,56.28
2022-10-09T01:02:14.582Z,56.39
2022-10-09T01:03:16.315Z,56.33
2022-10-09T01:04:17.986Z,56.74
2022-10-09T01:05:23.975Z,56.36
2022-10-09T01:06:39.051Z,55.80
2022-10-09T01:07:53.455Z,55.12
2022-10-09T01:09:18.055Z,56.54
2022-10-09T01:10:41.346Z,56.66
2022-10-09T01:12:10.398Z,57.25
2022-10-09T01:13:15.642Z,57.77
2022-10-09T01:14:17.229Z,57.18
2022-10-09T01:15:49.268Z,57.72
2022-10-09T01:16:56.404Z,57.53
2022-10-09T01:18:28.577Z,57.03
2022-10-09T01:20:12.129Z,58.05
2022-10-09T01:21:22.569Z,57.74
2022-10-09T01:22:33.485Z,58.01
2022-10-09T01:24:02.300Z,58.33
2022-10-09T01:25:09.371Z,58.71
2022-10-09T01:26:17.099Z,58.42
2022-10-09T01:27:23.920Z,58.92
2022-10-09T01:28:30.539Z,58.63
2022-10-09T01:29:37.699Z,58.09
2022-10-09T01:30:39.489Z,58.05
2022-10-09T01:31:45.047Z,58.55
2022-10-09T01:32:50.836Z,58.67
2022-10-09T01:33:52.838Z,58.30
2022-10-09T01:34:55.400Z,58.23
2022-10-09T01:35:58.205Z,57.96
2022-10-09T01:37:01.030Z,57.76
2022-10-09T01:38:04.475Z,57.31
2022-10-09T01:39:09.024Z,57.72
2022-10-09T01:40:13.317Z,57.36
2022-10-09T01:41:15.119Z,58.18
2022-10-09T01:42:20.635Z,58.36
2022-10-09T01:43:22.317Z,57.79
2022-10-09T01:44:27.530Z,57.66
2022-10-09T01:45:40.706Z,58.32
2022-10-09T01:46:42.486Z,58.37
2022-10-09T01:47:44.396Z,58.23
2022-10-09T01:48:57.226Z,58.54
2022-10-09T01:50:09.584Z,58.35
2022-10-09T01:51:11.913Z,57.96
2022-10-09T01:52:38.097Z,58.41
2022-10-09T01:53:44.523Z,58.41
2022-10-09T01:55:10.812Z,58.24
2022-10-09T01:56:16.632Z,58.60
2022-10-09T01:57:29.380Z,58.50
2022-10-09T01:58:39.762Z,58.61
2022-10-09T01:59:44.527Z,58.62
2022-10-09T02:00:54.143Z,58.96
2022-10-09T02:01:59.365Z,58.68
2022-10-09T02:03:02.684Z,58.87
2022-10-09T02:04:10.467Z,59.37
2022-10-09T02:05:19.511Z,59.33
2022-10-09T02:06:21.617Z,59.07
2022-10-09T02:07:25.032Z,58.90
2022-10-09T02:08:26.713Z,58.91
2022-10-09T02:09:29.793Z,59.25
2022-10-09T02:10:35.086Z,59.80
2022-10-09T02:11:39.297Z,60.17
2022-10-09T02:12:46.240Z,59.87
2022-10-09T02:13:53.058Z,59.81
2022-10-09T02:14:54.836Z,60.34
2022-10-09T02:16:20.841Z,60.49
2022-10-09T02:17:29.571Z,60.33
2022-10-09T02:18:45.586Z,60.16
2022-10-09T02:19:57.058Z,60.49
2022-10-09T02:21:06.767Z,60.73
2022-10-09T02:22:15.897Z,61.08
2022-10-09T02:23:19.877Z,61.00
2022-10-09T02:24:22.837Z,61.29
2022-10-09T02:25:25.009Z,61.47
2022-10-09T02:26:27.306Z,61.77
2022-10-09T02:27:29.525Z,61.76
2022-10-09T02:28:32.184Z,62.21
2022-10-09T02:29:33.958Z,61.78
2022-10-09T02:31:03.561Z,62.39
2022-10-09T02:32:05.269Z,62.08
2022-10-09T02:33:07.042Z,62.22
2022-10-09T02:34:16.217Z,62.98
2022-10-09T02:35:18.009Z,63.20
2022-10-09T02:36:19.677Z,62.64
2022-10-09T02:37:21.343Z,62.25
2022-10-09T02:38:23.094Z,62.67
2022-10-09T02:39:24.805Z,62.42
2022-10-09T02:40:26.651Z,63.06
2022-10-09T02:41:28.737Z,62.64
2022-10-09T02:42:30.386Z,62.79
2022-10-09T02:43:32.072Z,62.79
2022-10-09T02:44:33.770Z,62.81
2022-10-09T02:45:35.445Z,62.72
2022-10-09T02:46:38.642Z,62.59
2022-10-09T02:47:40.473Z,62.61
2022-10-09T02:48:42.266Z,62.77
2022-10-09T02:49:43.975Z,63.16
2022-10-09T02:50:45.661Z,62.38
2022-10-09T02:51:47.495Z,62.47
2022-10-09T02:52:49.419Z,62.50
2022-10-09T02:53:55.209Z,62.68
2022-10-09T02:54:56.860Z,62.48
2022-10-09T02:55:58.603Z,62.51
2022-10-09T02:57:00.332Z,62.52
2022-10-09T02:58:02.684Z,62.92
2022-10-09T02:59:04.487Z,62.45
2022-10-09T03:00:06.797Z,62.29
2022-10-09T03:01:08.736Z,62.95
2022-10-09T03:02:10.547Z,63.15
2022-10-09T03:03:12.270Z,62.71
2022-10-09T03:04:14.025Z,62.87
2022-10-09T03:05:15.721Z,62.28
2022-10-09T03:06:20.501Z,62.01
2022-10-09T03:07:22.148Z,61.61
2022-10-09T03:08:23.802Z,62.16
2022-10-09T03:09:28.191Z,62.69
2022-10-09T03:10:32.569Z,62.19
2022-10-09T03:11:34.296Z,62.93
2022-10-09T03:12:35.936Z,62.65
2022-10-09T03:13:39.839Z,62.66
2022-10-09T03:14:41.816Z,62.25
2022-10-09T03:15:43.566Z,61.81
2022-10-09T03:16:45.332Z,61.90
2022-10-09T03:17:47.170Z,62.05
2022-10-09T03:18:50.558Z,60.85
2022-10-09T03:19:52.206Z,60.53
2022-10-09T03:20:53.849Z,61.79
2022-10-09T03:21:55.562Z,61.38
2022-10-09T03:22:57.344Z,61.49
2022-10-09T03:23:58.998Z,61.19
2022-10-09T03:25:00.651Z,61.92
2022-10-09T03:26:14.405Z,62.21
2022-10-09T03:27:16.050Z,61.93
2022-10-09T03:28:17.794Z,61.93
2022-10-09T03:29:19.797Z,62.17
2022-10-09T03:30:21.495Z,61.96
2022-10-09T03:32:47.914Z,61.99
2022-10-09T03:33:49.889Z,61.82
2022-10-09T03:34:51.817Z,61.05
2022-10-09T03:35:53.457Z,61.38
2022-10-09T03:36:55.114Z,61.63
2022-10-09T03:37:56.766Z,61.16
2022-10-09T03:38:58.545Z,60.95
2022-10-09T03:40:00.259Z,60.63
2022-10-09T03:41:03.719Z,61.14
2022-10-09T03:42:05.438Z,60.69
2022-10-09T03:43:07.220Z,61.19
2022-10-09T03:44:08.986Z,62.46
2022-10-09T03:45:10.891Z,61.90
2022-10-09T03:46:12.849Z,62.40
2022-10-09T03:47:14.632Z,62.51
2022-10-09T03:48:16.729Z,62.04
2022-10-09T03:49:18.439Z,62.11
2022-10-09T03:50:20.098Z,62.46
2022-10-09T03:51:21.769Z,61.52
2022-10-09T03:52:23.743Z,62.06
2022-10-09T03:53:26.093Z,62.42
2022-10-09T03:54:27.777Z,62.13
2022-10-09T03:55:29.406Z,61.05
2022-10-09T03:56:31.107Z,62.23
2022-10-09T03:57:32.821Z,62.49
2022-10-09T03:58:34.603Z,63.05
2022-10-09T03:59:36.290Z,62.43
2022-10-09T04:00:38.105Z,61.55
2022-10-09T04:01:39.797Z,62.01
2022-10-09T04:02:41.470Z,61.73
2022-10-09T04:03:43.227Z,61.57
2022-10-09T04:04:44.905Z,61.60
2022-10-09T04:05:46.782Z,62.06
2022-10-09T04:06:48.438Z,61.65
2022-10-09T04:07:50.166Z,62.12
2022-10-09T04:08:51.851Z,62.03
2022-10-09T04:09:53.530Z,60.92
2022-10-09T04:10:59.441Z,61.86
2022-10-09T04:12:01.114Z,61.99
2022-10-09T04:13:02.916Z,61.57
2022-10-09T04:14:04.785Z,61.26
2022-10-09T04:15:07.322Z,61.37
2022-10-09T04:16:12.806Z,61.92
2022-10-09T04:17:14.653Z,61.22
2022-10-09T04:18:16.314Z,61.41
2022-10-09T04:19:18.102Z,61.05
2022-10-09T04:20:21.014Z,61.75
2022-10-09T04:21:22.675Z,61.63
2022-10-09T04:22:24.416Z,61.60
2022-10-09T04:23:27.902Z,61.45
2022-10-09T04:24:29.713Z,62.09
2022-10-09T04:25:31.966Z,62.75
2022-10-09T04:26:33.612Z,62.63
2022-10-09T04:27:35.278Z,62.69
2022-10-09T04:28:37.030Z,61.73
2022-10-09T04:29:39.577Z,62.40
2022-10-09T04:30:41.506Z,62.67
2022-10-09T04:31:43.682Z,62.75
2022-10-09T04:32:48.331Z,63.43
2022-10-09T04:33:50.333Z,62.99
2022-10-09T04:34:52.013Z,62.99
2022-10-09T04:35:55.112Z,62.35
2022-10-09T04:36:56.775Z,62.85
2022-10-09T04:37:58.457Z,62.69
2022-10-09T04:39:00.172Z,61.92
2022-10-09T04:40:01.826Z,62.36
2022-10-09T04:41:05.885Z,61.45
2022-10-09T04:42:07.849Z,62.96
2022-10-09T04:43:09.569Z,63.05
2022-10-09T04:44:11.238Z,63.32
2022-10-09T04:45:12.902Z,63.64
2022-10-09T04:46:15.405Z,63.66
2022-10-09T04:47:17.696Z,63.93
2022-10-09T04:48:19.648Z,63.83
2022-10-09T04:49:21.388Z,64.03
2022-10-09T04:50:23.317Z,63.73
2022-10-09T04:51:25.027Z,63.95
2022-10-09T04:52:26.868Z,63.92
2022-10-09T04:53:28.521Z,63.94
2022-10-09T04:54:30.247Z,63.83
2022-10-09T04:55:31.922Z,64.05
2022-10-09T04:56:33.673Z,63.77
2022-10-09T04:57:35.428Z,63.57
2022-10-09T04:58:37.345Z,63.15
2022-10-09T04:59:39.221Z,63.87
2022-10-09T05:00:45.818Z,64.09
2022-10-09T05:01:47.712Z,63.75
2022-10-09T05:02:49.775Z,63.28
2022-10-09T05:03:52.799Z,62.96
2022-10-09T05:04:54.455Z,63.50
2022-10-09T05:06:01.102Z,63.14
2022-10-09T05:07:02.782Z,63.07
2022-10-09T05:08:05.554Z,64.19
2022-10-09T05:09:07.210Z,64.90
2022-10-09T05:10:09.049Z,64.91
2022-10-09T05:11:19.118Z,64.42
2022-10-09T05:12:20.826Z,64.20
2022-10-09T05:13:22.501Z,63.44
2022-10-09T05:14:24.205Z,62.17
2022-10-09T05:15:26.024Z,61.20
2022-10-09T05:16:29.662Z,61.06
2022-10-09T05:17:31.477Z,60.83
2022-10-09T05:18:33.547Z,58.86
2022-10-09T05:19:35.297Z,57.77
2022-10-09T05:20:41.379Z,56.56
2022-10-09T05:21:43.034Z,56.32
2022-10-09T05:22:45.422Z,55.74
2022-10-09T05:23:47.821Z,55.57
2022-10-09T05:24:49.534Z,55.11
2022-10-09T05:25:58.716Z,54.70
2022-10-09T05:27:00.393Z,54.03
2022-10-09T05:28:02.669Z,53.95
2022-10-09T05:29:04.463Z,54.03
2022-10-09T05:30:07.287Z,53.71
2022-10-09T05:31:09.699Z,53.74
2022-10-09T05:32:11.430Z,53.17
2022-10-09T05:33:13.138Z,53.90
2022-10-09T05:34:14.838Z,53.67
2022-10-09T05:35:16.617Z,53.06
2022-10-09T05:36:18.454Z,52.47
2022-10-09T05:37:20.468Z,52.56
2022-10-09T05:38:23.895Z,53.23
2022-10-09T05:39:25.588Z,52.99
2022-10-09T05:40:29.361Z,52.72
2022-10-09T05:41:31.166Z,52.31
2022-10-09T05:42:32.856Z,51.88
2022-10-09T05:43:37.161Z,52.29
2022-10-09T05:44:38.831Z,51.89
2022-10-09T05:45:40.502Z,52.23
2022-10-09T05:46:42.309Z,52.46
2022-10-09T05:47:44.046Z,51.85
2022-10-09T05:48:51.436Z,52.39
2022-10-09T05:49:53.129Z,52.26
2022-10-09T05:50:54.770Z,52.63
2022-10-09T05:51:56.435Z,51.53
2022-10-09T05:52:58.094Z,52.13
2022-10-09T05:54:02.085Z,51.58
2022-10-09T05:55:03.899Z,52.00
2022-10-09T05:56:16.428Z,50.92
2022-10-09T05:57:18.107Z,50.89
2022-10-09T05:58:19.766Z,50.78
2022-10-09T05:59:21.524Z,50.65
2022-10-09T06:00:23.197Z,51.31
2022-10-09T06:01:29.364Z,51.19
2022-10-09T06:02:31.109Z,51.06
2022-10-09T06:03:32.846Z,50.49
2022-10-09T06:04:34.514Z,50.78
2022-10-09T06:05:36.166Z,50.80
2022-10-09T06:06:39.469Z,50.80
2022-10-09T06:07:41.130Z,51.07
2022-10-09T06:08:42.801Z,50.92
2022-10-09T06:09:44.448Z,50.27
2022-10-09T06:10:46.097Z,49.68
2022-10-09T06:11:47.766Z,50.39
2022-10-09T06:12:49.687Z,50.13
2022-10-09T06:13:52.099Z,51.02
2022-10-09T06:14:53.777Z,49.80
2022-10-09T06:15:55.709Z,49.90
2022-10-09T06:16:58.720Z,49.47
2022-10-09T06:18:00.382Z,49.89
2022-10-09T06:19:03.413Z,49.08
2022-10-09T06:20:05.489Z,49.36
2022-10-09T06:21:07.580Z,49.22
2022-10-09T06:22:09.267Z,48.99
2022-10-09T06:23:10.945Z,48.82
2022-10-09T06:24:26.983Z,48.55
2022-10-09T06:25:30.200Z,47.87
2022-10-09T06:26:31.941Z,48.15
2022-10-09T06:27:33.621Z,48.45
2022-10-09T06:28:36.226Z,48.47
2022-10-09T06:29:37.964Z,48.94
2022-10-09T06:30:39.657Z,47.63
2022-10-09T06:31:41.509Z,48.46
2022-10-09T06:32:43.157Z,48.46
2022-10-09T06:33:46.371Z,48.75
2022-10-09T06:34:48.008Z,48.91
2022-10-09T06:35:49.692Z,47.47
2022-10-09T06:36:51.366Z,48.60
2022-10-09T06:37:53.017Z,48.17
2022-10-09T06:38:55.054Z,48.40
2022-10-09T06:39:56.703Z,47.00
2022-10-09T06:41:02.871Z,46.79
2022-10-09T06:42:04.720Z,45.60
2022-10-09T06:43:07.520Z,45.37
2022-10-09T06:44:16.289Z,44.38
2022-10-09T06:45:18.635Z,44.91
2022-10-09T06:46:21.930Z,45.72
2022-10-09T06:47:23.667Z,45.90
2022-10-09T06:48:25.357Z,46.18
2022-10-09T06:49:27.144Z,45.99
2022-10-09T06:50:28.818Z,44.31
2022-10-09T06:51:31.169Z,43.95
2022-10-09T06:52:32.824Z,43.47
2022-10-09T06:53:35.555Z,42.42
2022-10-09T06:54:37.266Z,39.97
2022-10-09T06:55:38.978Z,41.53
2022-10-09T06:56:41.045Z,39.49
2022-10-09T06:57:42.784Z,38.04
2022-10-09T06:58:45.154Z,38.12
2022-10-09T06:59:50.197Z,38.22
2022-10-09T07:01:23.129Z,37.14
2022-10-09T07:02:24.838Z,35.44
2022-10-09T07:03:26.540Z,35.37
2022-10-09T07:04:28.184Z,34.87
2022-10-09T07:05:29.836Z,35.24
2022-10-09T07:06:32.259Z,34.04
2022-10-09T07:07:34.223Z,34.32
2022-10-09T07:08:37.312Z,33.96
2022-10-09T07:09:39.078Z,33.39
2022-10-09T07:10:40.786Z,34.05
2022-10-09T07:11:49.414Z,33.49
2022-10-09T07:12:51.555Z,32.48
2022-10-09T07:13:55.728Z,31.27
2022-10-09T07:14:57.537Z,32.26
2022-10-09T07:16:02.638Z,30.99
2022-10-09T07:17:06.403Z,31.21
2022-10-09T07:18:08.060Z,30.98
2022-10-09T07:19:11.857Z,30.72
2022-10-09T07:20:13.551Z,31.26
2022-10-09T07:21:16.074Z,31.12
2022-10-09T07:22:17.719Z,29.40
2022-10-09T07:23:19.362Z,29.92
2022-10-09T07:24:21.399Z,28.91
2022-10-09T07:25:23.064Z,28.44
2022-10-09T07:26:28.926Z,29.24
2022-10-09T07:27:30.615Z,28.55
2022-10-09T07:28:32.446Z,27.49
2022-10-09T07:29:34.112Z,27.07
2022-10-09T07:30:38.716Z,28.74
2022-10-09T07:31:40.525Z,27.67
2022-10-09T07:32:42.218Z,28.09
2022-10-09T07:33:43.924Z,28.88
2022-10-09T07:34:45.599Z,27.96
2022-10-09T07:35:58.232Z,28.45
2022-10-09T07:36:59.938Z,27.55
2022-10-09T07:38:01.570Z,28.17
2022-10-09T07:39:05.214Z,27.33
2022-10-09T07:40:07.249Z,27.13
2022-10-09T07:41:11.053Z,27.05
2022-10-09T07:42:12.729Z,27.34
2022-10-09T07:43:14.992Z,26.84
2022-10-09T07:44:16.746Z,26.70
2022-10-09T07:45:18.598Z,28.12
2022-10-09T07:46:22.652Z,25.52
2022-10-09T07:47:24.385Z,24.51
2022-10-09T07:48:26.598Z,24.65
2022-10-09T07:49:28.248Z,25.42
2022-10-09T07:50:29.886Z,26.62
2022-10-09T07:51:32.398Z,25.52
2022-10-09T07:52:34.051Z,25.00
2022-10-09T07:53:36.157Z,24.49
2022-10-09T07:54:37.925Z,24.02
2022-10-09T07:55:45.572Z,24.56
2022-10-09T07:56:47.239Z,24.60
2022-10-09T07:57:48.880Z,25.78
2022-10-09T07:59:01.925Z,24.30
2022-10-09T08:00:04.659Z,25.71
2022-10-09T08:01:07.703Z,24.43
2022-10-09T08:02:09.697Z,23.21
2022-10-09T08:03:14.540Z,23.88
2022-10-09T08:04:16.284Z,22.84
2022-10-09T08:05:17.938Z,22.63
2022-10-09T08:06:20.234Z,23.71
2022-10-09T08:07:21.882Z,22.28
2022-10-09T08:08:23.682Z,22.52
2022-10-09T08:09:25.425Z,22.84
2022-10-09T08:10:30.434Z,23.34
2022-10-09T08:11:32.611Z,25.12
2022-10-09T08:12:34.273Z,25.36
2022-10-09T08:13:35.955Z,24.31
2022-10-09T08:14:37.591Z,23.37
2022-10-09T08:15:43.875Z,22.76
2022-10-09T08:16:45.636Z,22.15
2022-10-09T08:17:47.351Z,22.04
2022-10-09T08:18:49.673Z,21.48
2022-10-09T08:19:51.393Z,21.60
2022-10-09T08:21:00.521Z,21.50
2022-10-09T08:22:03.597Z,20.51
2022-10-09T08:23:05.764Z,20.43
2022-10-09T08:24:07.418Z,21.18
2022-10-09T08:25:09.341Z,21.28
2022-10-09T08:26:16.062Z,20.62
2022-10-09T08:27:17.883Z,20.89
2022-10-09T08:28:20.168Z,20.40
2022-10-09T08:29:21.973Z,20.39
2022-10-09T08:30:23.820Z,21.26
2022-10-09T08:31:27.815Z,19.97
2022-10-09T08:32:29.554Z,19.26
2022-10-09T08:33:31.211Z,21.25
2022-10-09T08:34:32.864Z,20.59
2022-10-09T08:35:34.783Z,19.81
2022-10-09T08:36:36.500Z,20.76
2022-10-09T08:37:38.676Z,20.66
2022-10-09T08:38:48.339Z,19.25
2022-10-09T08:39:50.312Z,20.19
2022-10-09T08:41:08.524Z,18.99
2022-10-09T08:42:23.363Z,19.51
2022-10-09T08:43:34.230Z,19.32
2022-10-09T08:44:43.485Z,19.71
2022-10-09T08:45:47.018Z,19.60
2022-10-09T08:47:15.840Z,18.89
2022-10-09T08:48:24.725Z,19.48
2022-10-09T08:49:51.713Z,19.68
2022-10-09T08:50:57.114Z,18.46
2022-10-09T08:52:14.243Z,18.21
2022-10-09T08:53:32.689Z,18.39
2022-10-09T08:54:38.355Z,18.35
2022-10-09T08:55:47.070Z,17.63
2022-10-09T08:56:50.996Z,18.67
2022-10-09T08:57:55.743Z,18.16
2022-10-09T08:58:57.564Z,18.35
2022-10-09T08:59:59.332Z,19.13
2022-10-09T09:01:12.369Z,17.91
2022-10-09T09:02:31.190Z,17.71
2022-10-09T09:03:47.954Z,18.84
2022-10-09T09:04:55.634Z,17.86
2022-10-09T09:06:27.071Z,19.19
2022-10-09T09:07:52.848Z,18.77
2022-10-09T09:09:04.624Z,18.00
2022-10-09T09:10:34.154Z,18.15
2022-10-09T09:12:09.939Z,18.24
2022-10-09T09:13:17.777Z,18.44
2022-10-09T09:14:46.978Z,19.58
2022-10-09T09:16:07.794Z,17.82
2022-10-09T09:17:34.602Z,18.43
2022-10-09T09:18:48.470Z,19.00
2022-10-09T09:20:09.078Z,18.08
2022-10-09T09:21:36.495Z,18.17
2022-10-09T09:22:42.996Z,17.72
2022-10-09T09:23:47.833Z,17.84
2022-10-09T09:24:53.222Z,18.08
2022-10-09T09:25:56.135Z,17.73
2022-10-09T09:27:03.520Z,17.84
2022-10-09T09:28:22.797Z,18.36
2022-10-09T09:29:26.911Z,16.85
2022-10-09T09:30:35.851Z,17.09
2022-10-09T09:31:38.217Z,17.71
2022-10-09T09:32:53.814Z,16.73
2022-10-09T09:34:04.903Z,17.56
2022-10-09T09:35:25.438Z,18.27
2022-10-09T09:36:34.409Z,17.70
2022-10-09T09:37:37.740Z,17.71
2022-10-09T09:38:54.775Z,18.41
2022-10-09T09:40:35.537Z,17.87
2022-10-09T09:41:23.052Z,18.16
2022-10-09T09:42:24.832Z,17.00
2022-10-09T09:43:27.100Z,17.27
2022-10-09T09:44:32.038Z,17.04
2022-10-09T09:45:33.681Z,17.55
2022-10-09T09:46:37.611Z,17.12
2022-10-09T09:47:45.692Z,17.89
2022-10-09T09:48:48.997Z,18.33
2022-10-09T09:49:58.794Z,17.38
2022-10-09T09:51:23.306Z,17.84
2022-10-09T09:52:26.767Z,17.68
2022-10-09T09:53:36.003Z,17.71
2022-10-09T09:54:39.428Z,18.08
2022-10-09T09:55:41.956Z,17.81
2022-10-09T09:57:11.189Z,17.63
2022-10-09T09:58:12.980Z,17.43
2022-10-09T09:59:40.202Z,17.57
2022-10-09T10:00:41.942Z,17.49
2022-10-09T10:01:44.239Z,17.05
2022-10-09T10:02:46.523Z,16.85
2022-10-09T10:03:50.866Z,16.61
2022-10-09T10:04:59.786Z,18.27
2022-10-09T10:06:01.615Z,17.81
2022-10-09T10:07:03.405Z,17.76
2022-10-09T10:08:34.713Z,17.89
2022-10-09T10:09:36.414Z,18.10
2022-10-09T10:10:38.133Z,17.76
2022-10-09T10:11:48.839Z,17.09
2022-10-09T10:12:55.079Z,17.38
2022-10-09T10:13:57.203Z,17.07
2022-10-09T10:14:59.133Z,17.72
2022-10-09T10:16:01.503Z,17.41
2022-10-09T10:17:03.433Z,17.53
2022-10-09T10:18:15.509Z,18.52
2022-10-09T10:19:27.204Z,19.59
2022-10-09T10:20:32.237Z,17.40
2022-10-09T10:21:59.106Z,18.29
2022-10-09T10:23:01.174Z,17.46
2022-10-09T10:24:05.776Z,17.45
2022-10-09T10:25:17.974Z,17.61
2022-10-09T10:26:35.684Z,17.10
2022-10-09T10:27:41.034Z,17.06
2022-10-09T10:28:52.288Z,18.00
2022-10-09T10:30:01.626Z,18.45
2022-10-09T10:31:08.140Z,17.90
2022-10-09T10:32:34.498Z,17.57
2022-10-09T10:33:38.362Z,17.96
2022-10-09T10:34:58.358Z,17.69
2022-10-09T10:36:01.376Z,17.74
2022-10-09T10:37:15.258Z,17.62
2022-10-09T10:38:52.703Z,17.44
2022-10-09T10:40:05.773Z,17.58
2022-10-09T10:41:30.787Z,17.77
2022-10-09T10:42:58.640Z,17.79
2022-10-09T10:44:26.012Z,17.50
2022-10-09T10:46:04.567Z,17.69
2022-10-09T10:47:16.419Z,17.67
2022-10-09T10:48:29.086Z,18.14
2022-10-09T10:49:33.803Z,18.00
2022-10-09T10:50:45.128Z,17.66
2022-10-09T10:52:08.581Z,19.03
2022-10-09T10:53:28.660Z,18.21
2022-10-09T10:54:40.731Z,18.04
2022-10-09T10:55:56.111Z,18.54
2022-10-09T10:57:03.681Z,18.15
2022-10-09T10:58:37.674Z,17.82
2022-10-09T10:59:57.117Z,18.43
2022-10-09T11:01:16.218Z,18.40
2022-10-09T11:02:32.609Z,18.58
2022-10-09T11:03:43.450Z,19.26
2022-10-09T11:05:06.279Z,20.44
2022-10-09T11:06:20.501Z,18.89
2022-10-09T11:07:41.507Z,19.37
2022-10-09T11:09:13.535Z,19.09
2022-10-09T11:10:26.269Z,18.94
2022-10-09T11:11:51.632Z,20.94
2022-10-09T11:12:58.201Z,19.75
2022-10-09T11:14:21.361Z,19.80
2022-10-09T11:15:59.855Z,19.93
2022-10-09T11:17:01.653Z,20.88
2022-10-09T11:18:11.877Z,20.34
2022-10-09T11:19:19.267Z,20.56
2022-10-09T11:20:58.243Z,21.36
2022-10-09T11:22:28.912Z,21.94
2022-10-09T11:23:48.894Z,21.63
2022-10-09T11:25:11.614Z,21.24
2022-10-09T11:26:36.783Z,20.68
2022-10-09T11:27:49.200Z,20.98
2022-10-09T11:28:58.434Z,21.53
2022-10-09T11:30:04.341Z,22.00
2022-10-09T11:31:16.935Z,22.19
2022-10-09T11:32:24.618Z,22.45
2022-10-09T11:33:46.818Z,22.44
2022-10-09T11:34:58.629Z,22.48
2022-10-09T11:36:10.524Z,22.58
2022-10-09T11:37:21.627Z,22.91
2022-10-09T11:38:31.959Z,22.14
2022-10-09T11:39:34.128Z,23.24
2022-10-09T11:40:42.535Z,23.31
2022-10-09T11:41:49.051Z,22.62
2022-10-09T11:43:25.861Z,22.50
2022-10-09T11:44:45.460Z,23.15
2022-10-09T11:45:56.874Z,22.96
2022-10-09T11:47:01.716Z,23.08
2022-10-09T11:48:12.761Z,23.03
2022-10-09T11:49:17.122Z,24.29
2022-10-09T11:50:21.538Z,24.27
2022-10-09T11:51:30.356Z,23.79
2022-10-09T11:52:55.283Z,24.56
2022-10-09T11:53:58.135Z,24.28
2022-10-09T11:55:18.012Z,24.82
2022-10-09T11:56:25.307Z,24.79
2022-10-09T11:57:30.453Z,24.99
2022-10-09T11:58:32.212Z,25.43
2022-10-09T11:59:42.191Z,25.97
2022-10-09T12:00:44.792Z,25.13
2022-10-09T12:01:47.735Z,25.18
2022-10-09T12:02:58.167Z,25.56
2022-10-09T12:04:32.167Z,25.77
2022-10-09T12:05:45.166Z,26.27
2022-10-09T12:06:50.828Z,25.51
2022-10-09T12:07:52.520Z,25.90
2022-10-09T12:09:00.236Z,25.74
2022-10-09T12:10:05.118Z,26.09
2022-10-09T12:11:18.584Z,25.47
2022-10-09T12:12:23.251Z,26.87
2022-10-09T12:13:32.546Z,26.25
2022-10-09T12:14:37.074Z,25.92
2022-10-09T12:15:59.472Z,26.28
2022-10-09T12:17:01.970Z,26.44
2022-10-09T12:18:15.598Z,27.08
2022-10-09T12:19:19.211Z,27.23
2022-10-09T12:20:25.374Z,26.89
2022-10-09T12:22:05.564Z,27.01
2022-10-09T12:23:27.677Z,27.30
2022-10-09T12:24:37.772Z,27.48
2022-10-09T12:25:43.969Z,27.69
2022-10-09T12:26:47.345Z,28.03
2022-10-09T12:27:53.720Z,28.59
2022-10-09T12:28:58.788Z,28.13
2022-10-09T12:30:05.477Z,27.49
2022-10-09T12:31:29.080Z,27.72
2022-10-09T12:32:36.955Z,28.72
2022-10-09T12:33:48.199Z,28.19
2022-10-09T12:34:51.410Z,27.90
2022-10-09T12:36:11.429Z,28.23
2022-10-09T12:37:16.169Z,28.83
2022-10-09T12:38:17.778Z,28.67
2022-10-09T12:39:22.336Z,29.25
2022-10-09T12:40:27.138Z,29.75
2022-10-09T12:41:32.499Z,28.23
2022-10-09T12:42:34.283Z,28.56
2022-10-09T12:43:36.542Z,28.75
2022-10-09T12:44:40.072Z,29.20
2022-10-09T12:45:47.584Z,28.65
2022-10-09T12:46:49.332Z,29.05
2022-10-09T12:47:52.650Z,28.85
2022-10-09T12:48:54.631Z,28.66
2022-10-09T12:50:18.518Z,28.90
2022-10-09T12:51:25.048Z,29.40
2022-10-09T12:52:27.149Z,29.13
2022-10-09T12:53:30.086Z,29.62
2022-10-09T12:54:31.883Z,29.36
2022-10-09T12:55:41.778Z,29.36
2022-10-09T12:56:43.877Z,29.12
2022-10-09T12:57:45.793Z,28.94
2022-10-09T12:58:47.824Z,29.46
2022-10-09T12:59:50.131Z,29.08
2022-10-09T13:01:02.295Z,29.65
2022-10-09T13:02:04.207Z,29.42
2022-10-09T13:03:06.208Z,29.30
2022-10-09T13:04:11.130Z,29.64
2022-10-09T13:05:12.805Z,30.12
2022-10-09T13:06:14.389Z,30.02
2022-10-09T13:07:21.809Z,29.74
2022-10-09T13:08:27.187Z,29.68
2022-10-09T13:09:35.042Z,30.44
2022-10-09T13:10:36.733Z,30.77
2022-10-09T13:11:42.536Z,30.01
2022-10-09T13:12:51.262Z,30.08
2022-10-09T13:13:54.677Z,29.38
2022-10-09T13:15:02.186Z,29.65
2022-10-09T13:16:09.459Z,29.75
2022-10-09T13:17:43.756Z,29.54
2022-10-09T13:18:56.929Z,29.62
2022-10-09T13:20:26.022Z,29.78
2022-10-09T13:21:35.209Z,29.92
2022-10-09T13:22:37.452Z,29.95
2022-10-09T13:23:39.104Z,29.70
2022-10-09T13:24:40.770Z,30.05
2022-10-09T13:25:43.963Z,30.18
2022-10-09T13:26:45.633Z,29.80
2022-10-09T13:27:47.585Z,29.66
2022-10-09T13:28:49.739Z,29.25
2022-10-09T13:29:51.514Z,29.20
2022-10-09T13:30:53.461Z,29.19
2022-10-09T13:31:55.136Z,29.52
2022-10-09T13:32:57.339Z,29.21
2022-10-09T13:33:59.142Z,29.26
2022-10-09T13:35:00.802Z,29.03
2022-10-09T13:36:02.469Z,29.26
2022-10-09T13:37:04.151Z,29.92
2022-10-09T13:38:05.824Z,30.07
2022-10-09T13:39:10.740Z,30.38
2022-10-09T13:40:18.266Z,29.25
2022-10-09T13:41:23.824Z,29.49
2022-10-09T13:42:27.829Z,28.96
2022-10-09T13:43:31.238Z,28.60
2022-10-09T13:44:32.906Z,28.62
2022-10-09T13:45:34.559Z,29.32
2022-10-09T13:46:36.356Z,29.84
2022-10-09T13:47:38.178Z,29.89
2022-10-09T13:48:41.050Z,29.22
2022-10-09T13:49:42.925Z,29.11
2022-10-09T13:50:45.530Z,28.99
2022-10-09T13:51:47.266Z,29.04
2022-10-09T13:52:49.122Z,29.69
2022-10-09T13:53:50.859Z,28.96
2022-10-09T13:54:52.661Z,29.13
2022-10-09T13:56:00.016Z,28.82
2022-10-09T13:57:03.475Z,28.62
2022-10-09T13:58:05.276Z,28.75
2022-10-09T13:59:06.963Z,28.71
2022-10-09T14:00:09.338Z,29.12
2022-10-09T14:01:11.089Z,28.97
2022-10-09T14:02:13.066Z,29.24
2022-10-09T14:03:16.658Z,29.22
2022-10-09T14:04:18.773Z,28.88
2022-10-09T14:05:21.737Z,29.17
2022-10-09T14:06:23.371Z,28.84
2022-10-09T14:07:25.004Z,29.20
2022-10-09T14:08:26.789Z,28.72
2022-10-09T14:09:28.915Z,28.69
2022-10-09T14:10:30.618Z,28.56
2022-10-09T14:11:33.353Z,28.83
2022-10-09T14:12:35.025Z,28.76